My Meet Scores
Maria Simotas, Chicago Park Dist - MyMeetScores.com
Top100 | Top Teams | Upcoming Meets | Completed Meets | Latest | Add Scores | Help| Support | Bookmark and Share

Maria Simotas, Chicago Park Dist
Personal Bests
LevelVault BarsBeamFloorAA
48.3507.000 8.9008.92533.025
59.0508.650 9.0259.05035.125
69.1008.800 9.4759.05035.700
79.5009.475 9.4009.15037.125
89.2509.500 9.4009.15036.800
99.0758.600 9.4759.10036.150
Meet Scores
Date Meet Team Session Level Division Vault Bars Beam Floor AA
2018-05-03 2018 Level 9 Eastern Championships Chicago Park Dist 8 9 Sr 8 8.100 28 8.450 23 8.800 15T 9.100 14 34.450 23
2018-04-12 2018 Region 5 Levels 9/10 Championships Chicago Park Dist 07 9 Sr 8 9.050 12T 8.600 12 9.425 1 9.075 10T 36.150 4
2018-02-16 Big Classic Chicago Park Dist 5A 9 Senior D 8.825 6 8.150 5T 9.300 2 8.650 8T 34.925 4
2018-02-08 Hal's Harley-Davidson Invite Womens Chicago Park Dist O06 9 15+ yrs. 8.075 5 6.350 3 9.250 1 7.925 3 31.600 2
2017-12-01 Ultimate Wish Classic Chicago Park Dist 1 9 SR 8.875 3 0.000 7T 9.000 1T 7.750 10 25.625 7
2017-03-16 2017 Illinois Level 8, 9 & 10 State Meet Chicago Park Dist All 9 Sr D 8.525 19 7.450 15 8.775 3 9.000 10 33.750 14
2017-02-24 Kinetic Classic Chicago Park Dist 3 9 All Ages 8.450 34T 7.900 24 9.150 9 8.850 24T 34.350 20
2017-02-09 Hal's Harley-Davidson Invite Chicago Park Dist O08 9 15+ 8.500 4T 8.100 3 7.425 4 8.675 4 32.700 2
2017-01-13 St Jude Benefit Meet Chicago Park Dist 5B 9 Sr B 8.725 7 6.400 7 9.150 1 2.000 8 26.275 7
2016-12-16 2016 Aspire Classic Chicago Park Dist 4 9 Older 9.050 9 7.450 11 9.150 1 8.000 14 33.650 10
2016-03-18 2016 Illinois Level 8, 9, 10 State Championships Chicago Park Dist 03 9 9 Sr B 9.025 20T 7.750 24 9.225 1 6.250 29 32.250 25
2016-02-12 IGI Chicago Style Gymnastics Meet Chicago Park Dist 223 9 SrB 8.450 13 6.650 8 8.050 8 8.700 9 31.850 8
2016-01-29 Circle Of Stars Gymnastics Invitational Chicago Park Dist 1A1 9 16 & over 8.250 6 7.950 4 8.950 1 7.350 5 32.500 4
2015-12-18 2015 Aspire Classic Chicago Park Dist 7 9 Older 9.075 9T 7.600 11 8.575 2T 8.450 11T 33.700 11
2015-03-27 2015 Illinois Level 8,9,10 State Championships Chicago Park Dist 4 9 SrA 8.750 22 6.700 25 9.200 3 8.500 24 33.150 23
2015-03-13 2015 Lucky Invite Chicago Park Dist A8 9 Sr 8.750 3 6.050 7 8.475 4 8.700 5 31.975 3
2015-02-20 Midwest Open 2015 Chicago Park Dist 5B 9 Sr.A 8.550 6 6.800 7 9.475 1 8.500 8 33.325 7
2015-02-13 IGI Chicago Style Gymnastics Meet Chicago Park Dist 332 9 14 - 15 Yr 8.225 13 6.825 16 9.450 1 8.450 19 32.950 13
2015-01-23 King Arthur Invitational Chicago Park Dist 4 9 Junior 0.000 13 0.000 13 8.625 6 0.000 13 8.625 13
2014-04-25 2014 Region 5 Level 8 Championships Chicago Park Dist 8 Sr B 8.750 32 9.500 9 9.400 5 9.150 35 36.800 12
2014-03-21 2014 Illinois Level 8, 9, 10 State Championships Chicago Park Dist 8 Sr.B 9.250 5 9.425 4 8.800 14 9.050 21 36.525 5
2014-03-07 LGA Lucky Invite Chicago Park Dist A9 8 Sr A 8.850 8 9.150 3 8.550 9 8.950 6T 35.500 5
2014-02-07 IGI Chicago Style Gymnastics Meet Chicago Park Dist 412 8 14 & Over 8.375 18 6.250 23 7.800 24 8.925 15 31.350 23
2013-03-15 2013 Illinois Level 6, 7 State Meet Chicago Park Dist 5 7 Sr.C 9.325 13 9.375 4 9.175 9 9.150 22 37.025 5
2013-02-22 Midwest Open 2013 Chicago Park Dist 10A 7 13 & up 9.050 16 8.800 3 9.150 2 8.400 16 35.400 6
2013-02-08 IGI Chicago Style Gymnastics Meet Chicago Park Dist 132 7 12 Yr Olds 9.400 6T 9.475 2 9.400 2 8.850 16 37.125 2
2012-12-13 2012 Hawaiin Pineapple Classic Chicago Park Dist B7 7 age 13 9.500 2 9.200 1 9.325 1 8.850 6 36.875 1
2012-03-16 2012 Illinois Level 6, 7 State Championships Chicago Park Dist 8 7 Jr.A 9.175 17T 8.675 21T 7.225 23 8.850 18T 33.925 22T
2012-02-25 Midwest Open 2012 Chicago Park Dist 6B 7 Lvl 7: 12 9.000 14 8.800 13 8.525 13 8.775 16 35.100 15
2012-02-10 IGI Chicago Style Gymnastics Chicago Park Dist 123 7 12 Yr Olds 0.000 15T 8.475 10 9.125 7T 8.675 13 26.275 15
2012-02-04 2012 St. Valentines Classic Chicago Park Dist 2A 7 12 8.500 6 8.725 3 8.800 4 9.025 4 35.050 4
2012-01-20 Circle of Stars Chicago Park Dist 1B2 7 12 8.825 16 8.500 13 8.850 11 8.675 12T 34.850 13
2012-01-06 2012 St. Jude Invite Chicago Park Dist 2 7 Junior 8.800 12 7.300 11 8.400 9 9.050 10 33.550 12
2011-12-15 2011 Hawaiian Pineapple Classic Chicago Park Dist 5A 7 12 9.025 9T 8.950 4 8.600 4 8.950 13 35.525 6
2011-03-25 2011 Illinois Level 6-9-10 State Meet Chicago Park Dist 2 6 Jr.B 8.950 18 7.850 27 9.050 15 8.875 16 34.725 18
2011-03-04 Flip'r Meet Chicago Park Dist 5 6 11 8.850 8 8.000 17 8.400 17 8.550 8 33.800 12
2011-02-26 Midwest Open Chicago Park Dist 6A 6 11 8.900 6 8.275 5 9.475 4 9.050 5 35.700 5
2011-02-11 IGI Chicago Style Gymnastics Meet Chicago Park Dist 531 6 11 Yr Olds 8.500 14T 8.600 14T 9.300 4 8.850 12 35.250 9
2011-01-14 St. Jude Benefit Meet Chicago Park Dist 2 6 11 9.100 2 8.800 2 8.700 5 8.725 3 35.325 1
2010-11-12 North Judges Cup Chicago Park Dist 6A 6 11yrs 8.150 13 8.400 6 8.850 4 8.100 10 33.500 8
2010-04-23 2010 Illinois Level 5 State Championships Chicago Park Dist 5 Jr.A 9.050 25 8.650 23 9.025 17 8.400 28 35.125 24
2010-02-12 IGI Chicago Style Gymnastics Meet Chicago Park Dist 623 5 10 Yr Olds 8.300 16 7.525 19 8.575 18 9.050 6 33.450 17
2010-02-05 St. Valentines Classic Chicago Park Dist 3C 5 10 7.400 21 8.475 15 8.650 11 8.800 6 33.325 14
2010-01-16 2010 St. Jude Benefit Meet Chicago Park Dist 8 5 10 to 11 8.100 31 7.900 37 8.825 14 8.350 28 33.175 48
2009-12-27 Sports Fest Chicago Park Dist 5 9-11 7.525 21 7.350 19 8.450 9 7.750 17 31.075 23
2009-01-31 St. Valentine's Classic Chicago Park Dist 1C 4 Lvl4:9 8.200 16 7.000 18 8.900 3 8.925 6 33.025 15
2008-12-27 Sportsfest Chicago Park Dist 4 Lvl4:9-11 8.350 16 6.900 16 7.650 13 8.000 11 30.900 16

www.lazysuits.com